Time;durP1;ratioP1;P1;durP2;ratioP2;P2;SDS_P1;SDS_P2;PMS_P1;PMS_P2;Temp;Humidity;BMP_temperature;BMP_pressure;BME280_temperature;BME280_humidity;BME280_pressure;Samples;Min_cycle;Max_cycle;Signal;HPM_P1;HPM_P2
2023/03/06 00:01:47;;;;;;;;;40.25;34.50;;;;;;;;5093743;27;45404;-71
2023/03/06 00:04:13;;;;;;;;;39.25;34.00;;;;;;;;5094204;27;45396;-71
2023/03/06 00:06:38;;;;;;;;;41.50;35.00;;;;;;;;5095197;27;45263;-71
2023/03/06 00:09:03;;;;;;;;;42.50;37.25;;;;;;;;5095589;27;45298;-71
2023/03/06 00:11:29;;;;;;;;;48.50;39.00;;;;;;;;5094944;27;45234;-71
2023/03/06 00:13:54;;;;;;;;;40.00;36.25;;;;;;;;5095229;27;45814;-72
2023/03/06 00:16:19;;;;;;;;;35.50;33.50;;;;;;;;5094621;27;46579;-72
2023/03/06 00:18:46;;;;;;;;;35.75;32.50;;;;;;;;5093827;27;45815;-73
2023/03/06 00:21:11;;;;;;;;;35.00;30.00;;;;;;;;5095206;27;45436;-72
2023/03/06 00:23:36;;;;;;;;;37.75;36.50;;;;;;;;5095031;27;45325;-73
2023/03/06 00:26:05;;;;;;;;;34.50;32.00;;;;;;;;5094931;27;45596;-72
2023/03/06 00:28:31;;;;;;;;;36.75;34.00;;;;;;;;5095807;27;45446;-72
2023/03/06 00:30:56;;;;;;;;;34.75;33.00;;;;;;;;5098466;27;45408;-72
2023/03/06 00:33:21;;;;;;;;;41.00;36.75;;;;;;;;5098583;27;45415;-72
2023/03/06 00:35:47;;;;;;;;;38.00;33.00;;;;;;;;5098417;27;47496;-72
2023/03/06 00:38:12;;;;;;;;;35.50;33.25;;;;;;;;5098502;27;45390;-73
2023/03/06 00:40:37;;;;;;;;;42.25;34.00;;;;;;;;5098686;27;45325;-72
2023/03/06 00:43:02;;;;;;;;;42.75;35.50;;;;;;;;5097235;27;45514;-70
2023/03/06 00:45:28;;;;;;;;;44.75;35.50;;;;;;;;5096857;27;46253;-72
2023/03/06 00:47:53;;;;;;;;;36.50;33.75;;;;;;;;5098024;27;45243;-73
2023/03/06 00:50:18;;;;;;;;;30.75;25.25;;;;;;;;5098796;27;45232;-72
2023/03/06 00:52:44;;;;;;;;;40.25;34.25;;;;;;;;5098974;27;45211;-72
2023/03/06 00:55:09;;;;;;;;;38.25;33.00;;;;;;;;5099102;27;45895;-72
2023/03/06 00:57:35;;;;;;;;;35.75;31.00;;;;;;;;5098840;27;45215;-72
2023/03/06 01:00:00;;;;;;;;;40.75;32.25;;;;;;;;5098292;27;45267;-72
2023/03/06 01:02:25;;;;;;;;;43.00;34.00;;;;;;;;5097992;27;45293;-72
2023/03/06 01:04:50;;;;;;;;;36.00;34.00;;;;;;;;5097928;27;45333;-72
2023/03/06 01:07:16;;;;;;;;;32.25;29.75;;;;;;;;5097818;27;45288;-72
2023/03/06 01:09:41;;;;;;;;;33.50;28.75;;;;;;;;5098194;27;45360;-72
2023/03/06 01:12:06;;;;;;;;;44.25;36.25;;;;;;;;5098121;27;45286;-72
2023/03/06 01:14:32;;;;;;;;;39.75;34.50;;;;;;;;5097220;27;47054;-73
2023/03/06 01:16:57;;;;;;;;;40.75;34.75;;;;;;;;5096655;27;45321;-72
2023/03/06 01:19:22;;;;;;;;;43.00;36.50;;;;;;;;5098067;27;45289;-72
2023/03/06 01:21:47;;;;;;;;;38.75;36.25;;;;;;;;5098000;27;45346;-73
2023/03/06 01:24:13;;;;;;;;;45.50;37.50;;;;;;;;5096241;27;47178;-72
2023/03/06 01:26:38;;;;;;;;;41.50;36.50;;;;;;;;5097712;27;45527;-71
2023/03/06 01:29:03;;;;;;;;;45.25;37.75;;;;;;;;5097874;27;45690;-71
2023/03/06 01:31:28;;;;;;;;;44.50;37.00;;;;;;;;5097668;27;45476;-71
2023/03/06 01:33:53;;;;;;;;;42.00;37.25;;;;;;;;5097447;27;46048;-72
2023/03/06 01:36:19;;;;;;;;;35.75;33.00;;;;;;;;5097437;27;45385;-71
2023/03/06 01:38:44;;;;;;;;;33.50;28.25;;;;;;;;5096480;27;45536;-71
2023/03/06 01:41:10;;;;;;;;;36.25;30.50;;;;;;;;5096678;27;45550;-72
2023/03/06 01:43:41;;;;;;;;;38.75;33.25;;;;;;;;5097075;27;46919;-72
2023/03/06 01:46:15;;;;;;;;;39.75;31.75;;;;;;;;5097688;27;45333;-72
2023/03/06 01:48:40;;;;;;;;;37.50;33.75;;;;;;;;5097439;27;45487;-72
2023/03/06 01:51:05;;;;;;;;;35.50;31.00;;;;;;;;5096231;27;45376;-72
2023/03/06 01:53:31;;;;;;;;;30.00;28.75;;;;;;;;5097404;27;46072;-72
2023/03/06 01:55:56;;;;;;;;;37.50;30.50;;;;;;;;5097271;27;45360;-72
2023/03/06 01:58:21;;;;;;;;;34.50;30.25;;;;;;;;5097177;27;45253;-72
2023/03/06 02:00:46;;;;;;;;;37.75;30.50;;;;;;;;5097306;27;45230;-72
2023/03/06 02:03:14;;;;;;;;;32.25;28.25;;;;;;;;5096874;27;46315;-71
2023/03/06 02:05:40;;;;;;;;;41.00;35.25;;;;;;;;5097194;27;45370;-72
2023/03/06 02:08:06;;;;;;;;;32.75;31.00;;;;;;;;5095906;27;45443;-72
2023/03/06 02:10:32;;;;;;;;;34.50;30.00;;;;;;;;5097005;27;45352;-72
2023/03/06 02:12:57;;;;;;;;;31.00;31.00;;;;;;;;5096613;27;46212;-72
2023/03/06 02:15:24;;;;;;;;;31.50;30.75;;;;;;;;5097172;27;45298;-72
2023/03/06 02:17:50;;;;;;;;;35.50;32.00;;;;;;;;5096814;27;45424;-72
2023/03/06 02:20:25;;;;;;;;;44.50;37.00;;;;;;;;5097011;27;45442;-72
2023/03/06 02:23:01;;;;;;;;;33.75;29.50;;;;;;;;5096519;27;45434;-72
2023/03/06 02:25:36;;;;;;;;;37.25;34.25;;;;;;;;5096806;27;45218;-72
2023/03/06 02:28:02;;;;;;;;;34.75;29.75;;;;;;;;5095266;27;45367;-72
2023/03/06 02:30:28;;;;;;;;;39.75;33.00;;;;;;;;5097049;27;45316;-72
2023/03/06 02:32:53;;;;;;;;;39.50;36.50;;;;;;;;5096704;27;46068;-72
2023/03/06 02:35:29;;;;;;;;;37.50;30.00;;;;;;;;5096792;27;45446;-72
2023/03/06 02:37:56;;;;;;;;;32.25;28.50;;;;;;;;5096817;27;45498;-72
2023/03/06 02:40:21;;;;;;;;;35.25;31.50;;;;;;;;5096508;27;45485;-72
2023/03/06 02:42:49;;;;;;;;;29.50;27.00;;;;;;;;5094986;27;48412;-72
2023/03/06 02:45:16;;;;;;;;;39.25;34.00;;;;;;;;5096594;27;45399;-72
2023/03/06 02:47:41;;;;;;;;;14.50;11.25;;;;;;;;5096784;27;45348;-72
2023/03/06 02:50:06;;;;;;;;;36.75;33.50;;;;;;;;5096607;27;45355;-72
2023/03/06 02:52:32;;;;;;;;;37.00;31.50;;;;;;;;5095012;27;46210;-72
2023/03/06 02:54:57;;;;;;;;;30.75;28.25;;;;;;;;5096492;27;45275;-72
2023/03/06 02:57:22;;;;;;;;;35.75;34.00;;;;;;;;5096266;27;45324;-72
2023/03/06 02:59:47;;;;;;;;;38.75;35.50;;;;;;;;5096535;27;45239;-72
2023/03/06 03:02:13;;;;;;;;;36.00;33.50;;;;;;;;5096305;27;46088;-72
2023/03/06 03:04:38;;;;;;;;;32.00;31.00;;;;;;;;5096428;27;45363;-72
2023/03/06 03:07:03;;;;;;;;;34.50;32.25;;;;;;;;5096078;27;45458;-72
2023/03/06 03:09:35;;;;;;;;;31.25;29.00;;;;;;;;5096475;27;45345;-72
2023/03/06 03:12:00;;;;;;;;;39.50;34.75;;;;;;;;5095941;27;46039;-72
2023/03/06 03:14:25;;;;;;;;;38.75;30.00;;;;;;;;5095671;27;45352;-72
2023/03/06 03:16:51;;;;;;;;;29.75;27.25;;;;;;;;5096177;27;45279;-72
2023/03/06 03:19:17;;;;;;;;;37.75;30.50;;;;;;;;5095905;27;45368;-72
2023/03/06 03:21:42;;;;;;;;;34.50;31.75;;;;;;;;5096115;27;45319;-72
2023/03/06 03:24:07;;;;;;;;;39.75;31.25;;;;;;;;5095924;27;45259;-72
2023/03/06 03:26:32;;;;;;;;;31.25;30.50;;;;;;;;5095632;27;45380;-72
2023/03/06 03:28:58;;;;;;;;;29.75;25.75;;;;;;;;5096284;27;45340;-73
2023/03/06 03:31:23;;;;;;;;;29.75;28.50;;;;;;;;5095511;27;47017;-73
2023/03/06 03:33:48;;;;;;;;;29.00;24.50;;;;;;;;5094365;27;45436;-73
2023/03/06 03:36:13;;;;;;;;;37.25;31.75;;;;;;;;5095640;27;45329;-73
2023/03/06 03:38:39;;;;;;;;;32.50;27.50;;;;;;;;5095518;27;45611;-73
2023/03/06 03:41:04;;;;;;;;;36.25;33.25;;;;;;;;5095348;27;46220;-73
2023/03/06 03:43:29;;;;;;;;;38.50;33.25;;;;;;;;5095842;27;45441;-73
2023/03/06 03:45:54;;;;;;;;;34.75;31.50;;;;;;;;5095945;27;45314;-73
2023/03/06 03:48:20;;;;;;;;;32.00;29.25;;;;;;;;5095654;27;45265;-73
2023/03/06 03:50:45;;;;;;;;;33.75;29.50;;;;;;;;5095557;27;46214;-73
2023/03/06 03:53:10;;;;;;;;;40.00;33.00;;;;;;;;5095605;27;45358;-73
2023/03/06 03:55:35;;;;;;;;;44.25;37.75;;;;;;;;5095431;27;45399;-73
2023/03/06 03:58:01;;;;;;;;;38.25;30.75;;;;;;;;5095477;27;45368;-73
2023/03/06 04:00:26;;;;;;;;;30.75;30.50;;;;;;;;5095465;27;45314;-73
2023/03/06 04:02:51;;;;;;;;;36.75;34.00;;;;;;;;5095406;27;45390;-73
2023/03/06 04:05:16;;;;;;;;;35.50;34.00;;;;;;;;5098779;27;45247;-73
2023/03/06 04:07:42;;;;;;;;;42.25;34.75;;;;;;;;5099265;27;45369;-73
2023/03/06 04:10:08;;;;;;;;;37.00;32.50;;;;;;;;5098935;27;45321;-73
2023/03/06 04:12:34;;;;;;;;;40.50;35.25;;;;;;;;5098714;27;45823;-73
2023/03/06 04:14:59;;;;;;;;;34.50;31.25;;;;;;;;5099111;27;45364;-73
2023/03/06 04:17:25;;;;;;;;;39.25;34.75;;;;;;;;5099196;27;45291;-73
2023/03/06 04:19:50;;;;;;;;;35.25;30.00;;;;;;;;5099042;27;46255;-73
2023/03/06 04:22:15;;;;;;;;;34.00;32.25;;;;;;;;5098484;27;45274;-73
2023/03/06 04:24:41;;;;;;;;;41.25;35.25;;;;;;;;5099927;27;45371;-73
2023/03/06 04:27:06;;;;;;;;;35.00;30.00;;;;;;;;5100772;27;45296;-73
2023/03/06 04:29:31;;;;;;;;;34.25;31.75;;;;;;;;5100828;27;45527;-72
2023/03/06 04:31:56;;;;;;;;;36.25;33.00;;;;;;;;5100179;27;45375;-73
2023/03/06 04:34:21;;;;;;;;;36.50;32.50;;;;;;;;5098692;27;45454;-73
2023/03/06 04:36:47;;;;;;;;;36.50;34.50;;;;;;;;5098459;27;45341;-73
2023/03/06 04:39:12;;;;;;;;;32.00;30.25;;;;;;;;5098137;27;45387;-73
2023/03/06 04:41:38;;;;;;;;;34.50;29.50;;;;;;;;5098551;27;45326;-73
2023/03/06 04:44:03;;;;;;;;;38.50;34.25;;;;;;;;5098782;27;45285;-73
2023/03/06 04:46:28;;;;;;;;;30.00;26.50;;;;;;;;5097318;27;45627;-72
2023/03/06 04:48:54;;;;;;;;;34.25;33.75;;;;;;;;5098319;27;46679;-73
2023/03/06 04:51:19;;;;;;;;;34.25;33.50;;;;;;;;5098544;27;45361;-73
2023/03/06 04:53:44;;;;;;;;;38.00;34.00;;;;;;;;5098152;27;45434;-73
2023/03/06 04:56:09;;;;;;;;;32.50;30.00;;;;;;;;5098377;27;45392;-73
2023/03/06 04:58:35;;;;;;;;;35.75;34.00;;;;;;;;5098020;27;46786;-73
2023/03/06 05:01:00;;;;;;;;;40.25;34.00;;;;;;;;5098142;27;45305;-73
2023/03/06 05:03:25;;;;;;;;;34.00;33.25;;;;;;;;5098362;27;45352;-73
2023/03/06 05:05:51;;;;;;;;;42.50;35.25;;;;;;;;5098269;27;45362;-73
2023/03/06 05:08:17;;;;;;;;;35.25;31.25;;;;;;;;5097837;27;45287;-73
2023/03/06 05:10:42;;;;;;;;;40.50;33.00;;;;;;;;5097657;27;45402;-73
2023/03/06 05:13:08;;;;;;;;;37.75;33.00;;;;;;;;5097982;27;45321;-73
2023/03/06 05:15:33;;;;;;;;;32.00;30.00;;;;;;;;5097222;27;45383;-73
2023/03/06 05:17:58;;;;;;;;;36.75;32.50;;;;;;;;5097470;27;46211;-73
2023/03/06 05:20:24;;;;;;;;;45.50;36.75;;;;;;;;5097556;27;45401;-73
2023/03/06 05:22:49;;;;;;;;;24.50;24.50;;;;;;;;5097990;27;45252;-73
2023/03/06 05:25:14;;;;;;;;;31.50;28.75;;;;;;;;5098166;27;45389;-73
2023/03/06 05:27:40;;;;;;;;;33.00;30.50;;;;;;;;5096230;27;46235;-73
2023/03/06 05:30:05;;;;;;;;;31.75;26.00;;;;;;;;5098238;27;45295;-73
2023/03/06 05:32:30;;;;;;;;;33.50;29.00;;;;;;;;5097335;27;45368;-73
2023/03/06 05:34:56;;;;;;;;;35.00;33.75;;;;;;;;5097776;27;45364;-74
2023/03/06 05:37:22;;;;;;;;;29.00;28.25;;;;;;;;5096237;27;47240;-74
2023/03/06 05:39:47;;;;;;;;;31.50;31.50;;;;;;;;5096403;27;46021;-73
2023/03/06 05:42:12;;;;;;;;;38.00;35.00;;;;;;;;5096479;27;45348;-73
2023/03/06 05:44:37;;;;;;;;;33.00;33.00;;;;;;;;5097784;27;45461;-74
2023/03/06 05:47:03;;;;;;;;;34.75;30.50;;;;;;;;5096207;27;46280;-73
2023/03/06 05:49:32;;;;;;;;;40.25;35.50;;;;;;;;5097001;27;45316;-74
2023/03/06 05:51:58;;;;;;;;;29.25;26.00;;;;;;;;5097882;27;45442;-73
2023/03/06 05:54:25;;;;;;;;;31.25;28.00;;;;;;;;5097606;27;45387;-73
2023/03/06 05:56:50;;;;;;;;;27.75;23.75;;;;;;;;5096107;27;46825;-73
2023/03/06 05:59:15;;;;;;;;;34.00;30.75;;;;;;;;5097654;27;45262;-73
2023/03/06 06:01:41;;;;;;;;;23.50;23.50;;;;;;;;5097292;27;45324;-73
2023/03/06 06:04:06;;;;;;;;;31.50;26.75;;;;;;;;5098078;27;45225;-73
2023/03/06 06:06:31;;;;;;;;;33.00;29.00;;;;;;;;5097265;27;45474;-73
2023/03/06 06:08:56;;;;;;;;;28.25;27.75;;;;;;;;5097305;27;45265;-73
2023/03/06 06:11:21;;;;;;;;;31.00;26.75;;;;;;;;5097622;27;45320;-77
2023/03/06 06:13:47;;;;;;;;;34.50;31.25;;;;;;;;5097349;27;45252;-76
2023/03/06 06:16:17;;;;;;;;;29.25;27.75;;;;;;;;5097231;27;45312;-77
2023/03/06 06:18:43;;;;;;;;;39.25;34.75;;;;;;;;5096909;27;45380;-77
2023/03/06 06:21:10;;;;;;;;;28.00;24.75;;;;;;;;5096949;27;45326;-74
2023/03/06 06:23:35;;;;;;;;;26.75;26.50;;;;;;;;5096881;27;45500;-74
2023/03/06 06:26:02;;;;;;;;;27.00;25.75;;;;;;;;5096361;27;46655;-74
2023/03/06 06:28:28;;;;;;;;;32.75;29.00;;;;;;;;5096554;27;45415;-74
2023/03/06 06:30:53;;;;;;;;;23.50;23.25;;;;;;;;5097094;27;45356;-74
2023/03/06 06:33:18;;;;;;;;;33.25;28.50;;;;;;;;5096790;27;45423;-74
2023/03/06 06:35:43;;;;;;;;;31.75;30.25;;;;;;;;5096647;27;45505;-74
2023/03/06 06:38:08;;;;;;;;;28.00;25.25;;;;;;;;5096574;27;45508;-73
2023/03/06 06:40:34;;;;;;;;;31.75;28.25;;;;;;;;5095046;27;45405;-78
2023/03/06 06:42:59;;;;;;;;;42.50;34.75;;;;;;;;5095415;27;45361;-73
2023/03/06 06:45:24;;;;;;;;;31.25;30.75;;;;;;;;5096546;27;45359;-73
2023/03/06 06:47:50;;;;;;;;;37.75;30.50;;;;;;;;5095862;27;45477;-73
2023/03/06 06:50:15;;;;;;;;;45.50;35.00;;;;;;;;5096428;27;45638;-72
2023/03/06 06:52:40;;;;;;;;;36.00;30.50;;;;;;;;5096473;27;45338;-72
2023/03/06 06:55:05;;;;;;;;;32.50;27.25;;;;;;;;5096178;27;45534;-72
2023/03/06 06:57:31;;;;;;;;;37.00;32.00;;;;;;;;5095258;27;45410;-73
2023/03/06 06:59:56;;;;;;;;;31.50;27.25;;;;;;;;5096640;27;45497;-73
2023/03/06 07:02:21;;;;;;;;;38.25;32.75;;;;;;;;5094334;27;45494;-73
2023/03/06 07:04:46;;;;;;;;;32.75;28.25;;;;;;;;5095961;27;45990;-73
2023/03/06 07:07:12;;;;;;;;;32.00;25.00;;;;;;;;5094460;27;45387;-72
2023/03/06 07:09:38;;;;;;;;;39.75;30.50;;;;;;;;5096163;27;45279;-72
2023/03/06 07:12:04;;;;;;;;;30.75;29.00;;;;;;;;5096435;27;45333;-72
2023/03/06 07:14:29;;;;;;;;;30.50;24.00;;;;;;;;5095619;27;45441;-73
2023/03/06 07:16:54;;;;;;;;;28.00;25.75;;;;;;;;5095714;27;45428;-73
2023/03/06 07:19:19;;;;;;;;;31.25;26.25;;;;;;;;5096155;27;45218;-73
2023/03/06 07:21:44;;;;;;;;;24.75;24.75;;;;;;;;5096081;27;45324;-72
2023/03/06 07:24:10;;;;;;;;;38.25;31.75;;;;;;;;5095368;27;45421;-72
2023/03/06 07:26:35;;;;;;;;;37.75;28.25;;;;;;;;5095597;27;45476;-73
2023/03/06 07:29:01;;;;;;;;;32.75;29.00;;;;;;;;5096125;27;45326;-72
2023/03/06 07:31:26;;;;;;;;;29.75;28.00;;;;;;;;5095114;27;45426;-73
2023/03/06 07:33:52;;;;;;;;;35.00;30.00;;;;;;;;5095894;27;45277;-73
2023/03/06 07:36:18;;;;;;;;;36.50;31.50;;;;;;;;5095666;27;45232;-73
2023/03/06 07:38:43;;;;;;;;;30.25;27.25;;;;;;;;5095107;27;45308;-73
2023/03/06 07:41:12;;;;;;;;;25.00;24.00;;;;;;;;5095822;27;45275;-72
2023/03/06 07:43:37;;;;;;;;;26.75;24.50;;;;;;;;5095960;27;47148;-71
2023/03/06 07:46:03;;;;;;;;;33.50;29.75;;;;;;;;5094937;27;45387;-73
2023/03/06 07:48:28;;;;;;;;;27.25;24.00;;;;;;;;5095554;27;45369;-73
2023/03/06 07:51:01;;;;;;;;;34.00;25.50;;;;;;;;5094702;27;45536;-73
2023/03/06 07:53:26;;;;;;;;;34.00;29.75;;;;;;;;5095789;27;45783;-73
2023/03/06 07:55:52;;;;;;;;;25.00;23.50;;;;;;;;5095498;27;45495;-73
2023/03/06 07:58:17;;;;;;;;;30.50;25.75;;;;;;;;5095932;27;45364;-74
2023/03/06 08:00:42;;;;;;;;;28.25;26.25;;;;;;;;5094961;27;45329;-73
2023/03/06 08:03:08;;;;;;;;;20.50;16.75;;;;;;;;5094991;27;45570;-74
2023/03/06 08:05:34;;;;;;;;;32.75;30.75;;;;;;;;5095407;27;45601;-74
2023/03/06 08:07:59;;;;;;;;;27.75;24.00;;;;;;;;5095063;27;45349;-75
2023/03/06 08:10:24;;;;;;;;;29.25;26.50;;;;;;;;5094125;27;45468;-75
2023/03/06 08:12:49;;;;;;;;;30.75;27.00;;;;;;;;5095165;27;45302;-74
2023/03/06 08:15:15;;;;;;;;;33.25;27.75;;;;;;;;5093695;27;45429;-76
2023/03/06 08:17:40;;;;;;;;;31.25;24.50;;;;;;;;5095478;27;45300;-74
2023/03/06 08:20:05;;;;;;;;;31.75;25.50;;;;;;;;5095603;27;45388;-75
2023/03/06 08:22:32;;;;;;;;;24.50;24.50;;;;;;;;5093682;27;48233;-73
2023/03/06 08:24:57;;;;;;;;;24.75;22.00;;;;;;;;5093991;27;45293;-73
2023/03/06 08:27:23;;;;;;;;;20.75;20.25;;;;;;;;5095240;27;45377;-74
2023/03/06 08:29:48;;;;;;;;;33.25;27.00;;;;;;;;5095327;27;45295;-75
2023/03/06 08:32:13;;;;;;;;;33.50;30.00;;;;;;;;5095256;27;45349;-74
2023/03/06 08:34:39;;;;;;;;;27.25;25.25;;;;;;;;5095190;27;45302;-74
2023/03/06 08:37:05;;;;;;;;;29.25;27.75;;;;;;;;5095006;27;45423;-75
2023/03/06 08:39:30;;;;;;;;;33.50;28.25;;;;;;;;5093800;27;45583;-74
2023/03/06 08:41:55;;;;;;;;;29.50;25.75;;;;;;;;5094903;27;46248;-73
2023/03/06 08:44:20;;;;;;;;;22.25;19.75;;;;;;;;5094771;27;45321;-74
2023/03/06 08:46:46;;;;;;;;;27.50;26.50;;;;;;;;5095200;27;45340;-74
2023/03/06 08:49:11;;;;;;;;;42.75;29.25;;;;;;;;5095172;27;45321;-75
2023/03/06 08:51:36;;;;;;;;;30.25;29.00;;;;;;;;5091622;27;45448;-75
2023/03/06 08:54:02;;;;;;;;;21.75;17.75;;;;;;;;5091443;27;45514;-75
2023/03/06 08:56:28;;;;;;;;;21.25;20.25;;;;;;;;5116817;27;45375;-75
2023/03/06 08:58:54;;;;;;;;;24.25;22.25;;;;;;;;5118854;27;45423;-75
2023/03/06 09:01:21;;;;;;;;;24.75;24.50;;;;;;;;5119087;27;45427;-75
2023/03/06 09:03:47;;;;;;;;;27.50;21.25;;;;;;;;5118459;27;45344;-74
2023/03/06 09:06:12;;;;;;;;;26.00;23.00;;;;;;;;5119463;27;45397;-75
2023/03/06 09:08:41;;;;;;;;;23.00;21.50;;;;;;;;5118121;27;45379;-74
2023/03/06 09:11:07;;;;;;;;;23.75;21.00;;;;;;;;5116311;27;47315;-75
2023/03/06 09:13:32;;;;;;;;;30.50;25.00;;;;;;;;5097797;27;45379;-75
2023/03/06 09:15:57;;;;;;;;;27.50;21.25;;;;;;;;5097842;27;45316;-75
2023/03/06 09:18:22;;;;;;;;;30.75;25.50;;;;;;;;5097581;27;45401;-75
2023/03/06 09:20:48;;;;;;;;;28.25;22.25;;;;;;;;5098576;27;45422;-75
2023/03/06 09:23:13;;;;;;;;;24.00;23.25;;;;;;;;5098435;27;45338;-75
2023/03/06 09:25:38;;;;;;;;;25.75;22.75;;;;;;;;5098405;27;45308;-75
2023/03/06 09:28:03;;;;;;;;;26.00;25.75;;;;;;;;5096567;27;45430;-75
2023/03/06 09:30:28;;;;;;;;;29.50;25.75;;;;;;;;5098571;27;45401;-75
2023/03/06 09:32:53;;;;;;;;;30.50;28.00;;;;;;;;5097692;27;45437;-74
2023/03/06 09:35:19;;;;;;;;;25.00;21.25;;;;;;;;5098149;27;45373;-74
2023/03/06 09:37:44;;;;;;;;;25.00;22.75;;;;;;;;5097048;27;45490;-74
2023/03/06 09:40:28;;;;;;;;;27.50;25.00;;;;;;;;5097908;27;45582;-74
2023/03/06 09:42:54;;;;;;;;;25.75;21.50;;;;;;;;5097501;27;45368;-74
2023/03/06 09:45:20;;;;;;;;;26.00;24.75;;;;;;;;5098017;27;45350;-75
2023/03/06 09:47:52;;;;;;;;;25.75;19.75;;;;;;;;5097966;27;45292;-76
2023/03/06 09:50:23;;;;;;;;;34.25;29.25;;;;;;;;5097805;27;47408;-75
2023/03/06 09:52:54;;;;;;;;;23.75;23.50;;;;;;;;5098046;27;45352;-75
2023/03/06 09:55:23;;;;;;;;;20.25;19.00;;;;;;;;5096176;27;45298;-75
2023/03/06 09:57:53;;;;;;;;;20.25;19.00;;;;;;;;5096834;27;45326;-75
2023/03/06 10:00:22;;;;;;;;;18.00;17.00;;;;;;;;5097126;27;45522;-75
2023/03/06 10:02:47;;;;;;;;;27.50;24.00;;;;;;;;5097128;27;45332;-75
2023/03/06 10:05:22;;;;;;;;;29.75;28.25;;;;;;;;5097301;27;45441;-75
2023/03/06 10:07:53;;;;;;;;;25.50;23.00;;;;;;;;5097278;27;45221;-75
2023/03/06 10:10:18;;;;;;;;;23.25;21.75;;;;;;;;5096786;27;45364;-75
2023/03/06 10:12:47;;;;;;;;;23.00;20.00;;;;;;;;5096807;27;45449;-75
2023/03/06 10:15:17;;;;;;;;;28.00;21.25;;;;;;;;5097024;27;45297;-75
2023/03/06 10:17:42;;;;;;;;;22.75;21.50;;;;;;;;5096453;27;45695;-76
2023/03/06 10:20:16;;;;;;;;;18.50;17.75;;;;;;;;5096391;27;46977;-75
2023/03/06 10:22:56;;;;;;;;;22.25;21.25;;;;;;;;5094050;27;45586;-75
2023/03/06 10:25:23;;;;;;;;;20.75;20.75;;;;;;;;5097045;27;45294;-74
2023/03/06 10:27:50;;;;;;;;;17.75;17.00;;;;;;;;5083684;27;45449;-74
2023/03/06 10:30:31;;;;;;;;;20.25;15.75;;;;;;;;5094487;27;45428;-74
2023/03/06 10:33:07;;;;;;;;;17.25;16.25;;;;;;;;5091972;27;45408;-74
2023/03/06 10:35:46;;;;;;;;;21.00;20.00;;;;;;;;5085800;27;45449;-74
2023/03/06 10:38:17;;;;;;;;;19.75;19.50;;;;;;;;5102384;27;45460;-76
2023/03/06 10:41:03;;;;;;;;;24.25;20.25;;;;;;;;5110121;27;46039;-73
2023/03/06 10:43:28;;;;;;;;;23.25;21.00;;;;;;;;5076180;27;45494;-76
2023/03/06 10:45:53;;;;;;;;;19.50;19.00;;;;;;;;5108398;27;45406;-73
2023/03/06 10:48:24;;;;;;;;;14.00;12.75;;;;;;;;5106536;27;45452;-75
2023/03/06 10:50:50;;;;;;;;;13.00;12.50;;;;;;;;5100585;27;45539;-75
2023/03/06 10:53:23;;;;;;;;;19.75;17.00;;;;;;;;5112869;27;45476;-76
2023/03/06 10:55:53;;;;;;;;;20.75;18.25;;;;;;;;5103081;27;45361;-76
2023/03/06 10:58:18;;;;;;;;;19.50;18.25;;;;;;;;5105201;27;46404;-75
2023/03/06 11:00:44;;;;;;;;;20.50;18.00;;;;;;;;5111348;27;45536;-75
2023/03/06 11:03:15;;;;;;;;;21.25;20.00;;;;;;;;5100717;27;45472;-75
2023/03/06 11:05:51;;;;;;;;;25.50;23.00;;;;;;;;5110389;27;45392;-76
2023/03/06 11:08:21;;;;;;;;;18.00;16.25;;;;;;;;5107618;27;45357;-76
2023/03/06 11:10:54;;;;;;;;;24.50;20.00;;;;;;;;5103426;27;45667;-75
2023/03/06 11:13:23;;;;;;;;;27.00;17.50;;;;;;;;5103020;27;45468;-75
2023/03/06 11:16:18;;;;;;;;;17.00;16.25;;;;;;;;5097982;27;45372;-75
2023/03/06 11:18:54;;;;;;;;;18.50;15.75;;;;;;;;5096341;27;45652;-74
2023/03/06 11:21:54;;;;;;;;;24.25;23.00;;;;;;;;5105073;27;45484;-74
2023/03/06 11:24:20;;;;;;;;;21.50;17.75;;;;;;;;5051456;28;45382;-75
2023/03/06 11:26:47;;;;;;;;;16.75;15.75;;;;;;;;5045317;28;45469;-75
2023/03/06 11:29:15;;;;;;;;;20.75;19.75;;;;;;;;5054646;28;45498;-75
2023/03/06 11:31:50;;;;;;;;;21.75;20.50;;;;;;;;5055955;28;45438;-74
2023/03/06 11:34:18;;;;;;;;;23.25;21.00;;;;;;;;5052833;28;45390;-75
2023/03/06 11:36:43;;;;;;;;;17.25;16.25;;;;;;;;5035486;28;45483;-74
2023/03/06 11:39:18;;;;;;;;;13.25;13.25;;;;;;;;5035706;28;45547;-74
2023/03/06 11:41:58;;;;;;;;;23.75;18.00;;;;;;;;5052732;28;45414;-74
2023/03/06 11:44:29;;;;;;;;;24.50;19.00;;;;;;;;5052789;28;45535;-74
2023/03/06 11:47:04;;;;;;;;;12.00;11.00;;;;;;;;5053032;28;45451;-75
2023/03/06 11:49:32;;;;;;;;;13.25;11.50;;;;;;;;5053102;28;45490;-74
2023/03/06 11:51:59;;;;;;;;;19.50;19.50;;;;;;;;5052574;28;45470;-74
2023/03/06 11:54:25;;;;;;;;;18.25;16.75;;;;;;;;5035630;28;45938;-74
2023/03/06 11:56:56;;;;;;;;;19.00;16.75;;;;;;;;5053073;28;45324;-74
2023/03/06 11:59:45;;;;;;;;;19.75;18.00;;;;;;;;5052887;28;45321;-74
2023/03/06 12:02:29;;;;;;;;;20.50;18.50;;;;;;;;5095086;27;46301;-74
2023/03/06 12:05:13;;;;;;;;;21.75;18.50;;;;;;;;5095584;27;45298;-75
2023/03/06 12:07:47;;;;;;;;;24.25;20.75;;;;;;;;5095486;27;45431;-75
2023/03/06 12:10:29;;;;;;;;;23.25;20.00;;;;;;;;5094210;27;45444;-75
2023/03/06 12:13:23;;;;;;;;;26.00;21.75;;;;;;;;5094971;27;45529;-75
2023/03/06 12:16:01;;;;;;;;;20.50;17.25;;;;;;;;5095379;27;45445;-75
2023/03/06 12:18:33;;;;;;;;;22.50;15.50;;;;;;;;5083491;27;45340;-74
2023/03/06 12:21:04;;;;;;;;;19.50;16.75;;;;;;;;5075032;28;45414;-74
2023/03/06 12:23:38;;;;;;;;;25.00;21.75;;;;;;;;5075080;28;47122;-74
2023/03/06 12:26:32;;;;;;;;;22.25;18.00;;;;;;;;5077971;28;45373;-74
2023/03/06 12:29:00;;;;;;;;;20.50;18.00;;;;;;;;4976068;28;45409;-74
2023/03/06 12:31:29;;;;;;;;;22.00;21.50;;;;;;;;4975843;28;45458;-74
2023/03/06 12:33:57;;;;;;;;;22.50;21.00;;;;;;;;4975695;28;45441;-74
2023/03/06 12:36:34;;;;;;;;;21.75;20.75;;;;;;;;4975134;28;45411;-74
2023/03/06 12:39:06;;;;;;;;;22.75;20.00;;;;;;;;4975147;28;45537;-74
2023/03/06 12:41:34;;;;;;;;;22.50;21.50;;;;;;;;4975486;28;45691;-74
2023/03/06 12:44:02;;;;;;;;;25.75;23.25;;;;;;;;4975555;28;46166;-74
2023/03/06 12:46:29;;;;;;;;;23.50;21.75;;;;;;;;4975694;28;45680;-74
2023/03/06 12:48:57;;;;;;;;;22.25;20.50;;;;;;;;4976205;28;45376;-74
2023/03/06 12:51:22;;;;;;;;;27.75;25.00;;;;;;;;4975482;28;45366;-74
2023/03/06 12:53:48;;;;;;;;;22.25;18.00;;;;;;;;4974814;28;46488;-74
2023/03/06 12:56:15;;;;;;;;;25.00;23.25;;;;;;;;4975939;28;45763;-74
2023/03/06 12:58:48;;;;;;;;;27.00;24.75;;;;;;;;4976186;28;45387;-74
2023/03/06 13:01:32;;;;;;;;;17.75;16.00;;;;;;;;4976025;28;45472;-74
2023/03/06 13:04:05;;;;;;;;;18.50;15.50;;;;;;;;4975783;28;45374;-74
2023/03/06 13:06:46;;;;;;;;;21.00;20.75;;;;;;;;5073857;28;45350;-74
2023/03/06 13:09:26;;;;;;;;;26.25;20.50;;;;;;;;5077927;28;45414;-74
2023/03/06 13:12:13;;;;;;;;;20.00;18.75;;;;;;;;5077686;28;45438;-74
2023/03/06 13:14:38;;;;;;;;;25.00;21.00;;;;;;;;5097160;27;45806;-74
2023/03/06 13:17:21;;;;;;;;;26.25;21.75;;;;;;;;5098060;27;45287;-74
2023/03/06 13:19:47;;;;;;;;;22.75;22.50;;;;;;;;5097843;27;45395;-74
2023/03/06 13:22:26;;;;;;;;;20.50;19.25;;;;;;;;5079700;27;45389;-74
2023/03/06 13:25:10;;;;;;;;;23.00;21.00;;;;;;;;5097045;27;45497;-74
2023/03/06 13:27:50;;;;;;;;;21.00;21.00;;;;;;;;5097339;27;45318;-74
2023/03/06 13:30:21;;;;;;;;;23.00;19.50;;;;;;;;5098169;27;45392;-74
2023/03/06 13:32:48;;;;;;;;;24.00;21.00;;;;;;;;5098076;27;45449;-74
2023/03/06 13:35:28;;;;;;;;;27.25;25.75;;;;;;;;5079236;27;47264;-75
2023/03/06 13:37:54;;;;;;;;;26.50;22.50;;;;;;;;5097010;27;45475;-75
2023/03/06 13:40:33;;;;;;;;;25.25;24.25;;;;;;;;5097790;27;45393;-75
2023/03/06 13:43:03;;;;;;;;;20.25;19.75;;;;;;;;5097762;27;45427;-75
2023/03/06 13:45:28;;;;;;;;;20.25;18.75;;;;;;;;5097708;27;45539;-75
2023/03/06 13:47:57;;;;;;;;;18.75;18.75;;;;;;;;5097331;27;45354;-75
2023/03/06 13:50:28;;;;;;;;;20.75;19.00;;;;;;;;5097865;27;45294;-75
2023/03/06 13:53:00;;;;;;;;;20.50;18.25;;;;;;;;5079760;27;45516;-75
2023/03/06 13:55:36;;;;;;;;;26.25;21.50;;;;;;;;5097912;27;45498;-75
2023/03/06 13:58:20;;;;;;;;;27.25;19.75;;;;;;;;5113015;27;45487;-75
2023/03/06 14:00:48;;;;;;;;;23.75;22.00;;;;;;;;5097834;27;45380;-75
2023/03/06 14:03:31;;;;;;;;;25.25;24.00;;;;;;;;5097354;27;45487;-75
2023/03/06 14:05:57;;;;;;;;;22.25;20.25;;;;;;;;5097098;27;46089;-76
2023/03/06 14:08:27;;;;;;;;;19.50;18.50;;;;;;;;5097135;27;45389;-75
2023/03/06 14:11:15;;;;;;;;;25.00;18.00;;;;;;;;5097310;27;45292;-75
2023/03/06 14:13:44;;;;;;;;;15.75;14.00;;;;;;;;5096990;27;45342;-75
2023/03/06 14:16:16;;;;;;;;;17.50;17.00;;;;;;;;5097054;27;45396;-75
2023/03/06 14:18:45;;;;;;;;;22.00;19.25;;;;;;;;5097310;27;45377;-75
2023/03/06 14:21:12;;;;;;;;;24.50;18.50;;;;;;;;5097031;27;45360;-75